West Bend, WI

1:06 AM CST on November 17, 2019 (GMT -0600)
West Bend Municipal

Weather History for KETB - August, 2019

Change the Weather History Date:

Thursday, August 1, 2019

  Actual Average Record
Temperature  
Mean Temperature 60 °F -  
Max Temperature 77 °F 80 °F 102 °F (1988)
Min Temperature 42 °F 58 °F 42 °F (2019)
Degree Days  
Heating Degree Days 6    
Growing Degree Days 10 (Base 50)    
Moisture  
Dew Point 50 °F    
Average Humidity 70    
Maximum Humidity 100    
Minimum Humidity 34    
Precipitation  
Precipitation 0.00 in - - ()
Sea Level Pressure  
Sea Level Pressure 30.21 in    
Wind  
Wind Speed 1 mph (ESE)    
Max Wind Speed 8 mph    
Max Gust Speed -    
Visibility 9 miles    
Events      
Averages and records for this station are not official NWS values.
T = Trace of Precipitation, MM = Missing Value Source: NWS Daily Summary

Daily Weather History Graph

Daily Weather History Graph

Search for Another Location

Airport or City:

Astronomy

Aug. 01, 2019 Rise Set
Actual Time 5:42 AM CDT 8:15 PM CDT
Civil Twilight 5:09 AM CDT 8:47 PM CDT
Nautical Twilight 4:28 AM CDT 9:27 PM CDT
Astronomical Twilight 3:42 AM CDT 10:13 PM CDT
Moon 6:05 AM CDT (8/1) 9:01 PM CDT (8/1)
Length of Visible Light 15h 37m
Length of Day
14h 32m
New Moon, 1% of the Moon is Illuminated
Aug 1
New Moon
Aug 7
First Quarter
Aug 15
Full
Aug 23
Last Quarter
Aug 30
New

Hourly Weather History & Observations

Time (CDT) Temp. Dew Point Humidity Pressure Visibility Wind Dir Wind Speed Gust Speed Precip Events Conditions
12:15 AM 51.8 °F 50.0 °F 94% 30.19 in 10.0 mi Calm Calm - N/A   Clear
12:35 AM 51.8 °F 50.0 °F 94% 30.19 in 10.0 mi Calm Calm - N/A   Clear
12:55 AM 51.8 °F 50.0 °F 94% 30.18 in 10.0 mi Calm Calm - N/A   Clear
1:15 AM 51.8 °F 50.0 °F 94% 30.19 in 10.0 mi Calm Calm - N/A   Clear
1:35 AM 50.0 °F 48.2 °F 94% 30.19 in 10.0 mi Calm Calm - N/A   Clear
1:55 AM 48.2 °F 48.2 °F 100% 30.20 in 10.0 mi Calm Calm - N/A   Clear
2:15 AM 50.0 °F 48.2 °F 94% 30.20 in 10.0 mi Calm Calm - N/A   Clear
2:35 AM 48.2 °F 48.2 °F 100% 30.20 in 10.0 mi Calm Calm - N/A   Clear
2:55 AM 48.2 °F 48.2 °F 100% 30.20 in 3.0 mi Calm Calm - N/A   Clear
3:15 AM 46.4 °F 46.4 °F 100% 30.19 in 5.0 mi Calm Calm - N/A   Scattered Clouds
3:35 AM 46.4 °F 46.4 °F 100% 30.20 in 1.2 mi Calm Calm - N/A   Scattered Clouds
3:55 AM 46.4 °F 46.4 °F 100% 30.20 in 1.0 mi Calm Calm - N/A   Mostly Cloudy
4:15 AM 44.6 °F 44.6 °F 100% 30.20 in 10.0 mi Calm Calm - N/A   Clear
4:35 AM 46.4 °F 46.4 °F 100% 30.21 in 10.0 mi Calm Calm - N/A   Clear
4:55 AM 44.6 °F 44.6 °F 100% 30.21 in 1.0 mi Calm Calm - N/A   Mist
5:15 AM 44.6 °F 44.6 °F 100% 30.21 in 10.0 mi Calm Calm - N/A   Clear
5:35 AM 44.6 °F 44.6 °F 100% 30.21 in 1.0 mi Calm Calm - N/A   Mist
5:55 AM 42.8 °F 42.8 °F 100% 30.21 in 4.0 mi Calm Calm - N/A   Clear
6:15 AM 44.6 °F 44.6 °F 100% 30.22 in 1.0 mi Calm Calm - N/A   Mist
6:35 AM 44.6 °F 44.6 °F 100% 30.22 in 10.0 mi Calm Calm - N/A   Clear
6:55 AM 46.4 °F 46.4 °F 100% 30.23 in 10.0 mi Calm Calm - N/A   Clear
7:15 AM 50.0 °F 50.0 °F 100% 30.23 in 10.0 mi Calm Calm - N/A   Clear
7:35 AM 53.6 °F 53.6 °F 100% 30.23 in 10.0 mi Calm Calm - N/A   Clear
7:55 AM 57.2 °F 51.8 °F 82% 30.23 in 10.0 mi Calm Calm - N/A   Clear
8:15 AM 60.8 °F 53.6 °F 77% 30.24 in 10.0 mi Calm Calm - N/A   Clear
8:35 AM 62.6 °F 53.6 °F 72% 30.24 in 10.0 mi Calm Calm - N/A   Clear
8:55 AM 64.4 °F 53.6 °F 68% 30.24 in 10.0 mi Calm Calm - N/A   Clear
9:15 AM 66.2 °F 53.6 °F 64% 30.24 in 10.0 mi Calm Calm - N/A   Clear
9:35 AM 68.0 °F 53.6 °F 60% 30.25 in 10.0 mi Calm Calm - N/A   Clear
9:55 AM 68.0 °F 53.6 °F 60% 30.24 in 10.0 mi Calm Calm - N/A   Clear
10:15 AM 69.8 °F 50.0 °F 49% 30.25 in 10.0 mi Calm Calm - N/A   Clear
10:35 AM 71.6 °F 50.0 °F 46% 30.25 in 10.0 mi Calm Calm - N/A   Clear
10:55 AM 71.6 °F 46.4 °F 41% 30.24 in 10.0 mi Calm Calm - N/A   Clear
11:15 AM 71.6 °F 46.4 °F 41% 30.24 in 10.0 mi Calm Calm - N/A   Clear
11:35 AM 73.4 °F 46.4 °F 38% 30.23 in 10.0 mi ESE 4.6 mph - N/A   Clear
11:55 AM 71.6 °F 46.4 °F 41% 30.24 in 10.0 mi Calm Calm - N/A   Clear
12:15 PM 73.4 °F 48.2 °F 41% 30.23 in 10.0 mi East 3.5 mph - N/A   Clear
12:35 PM 73.4 °F 46.4 °F 38% 30.22 in 10.0 mi NNE 5.8 mph - N/A   Clear
12:55 PM 75.2 °F 46.4 °F 36% 30.22 in 10.0 mi East 3.5 mph - N/A   Clear
1:15 PM 75.2 °F 46.4 °F 36% 30.21 in 10.0 mi Calm Calm - N/A   Clear
1:35 PM 77.0 °F 46.4 °F 34% 30.21 in 10.0 mi Calm Calm - N/A   Clear
1:55 PM 77.0 °F 50.0 °F 39% 30.20 in 10.0 mi NE 4.6 mph - N/A   Clear
2:15 PM 77.0 °F 50.0 °F 39% 30.20 in 10.0 mi East 5.8 mph - N/A   Clear
2:35 PM 77.0 °F 51.8 °F 41% 30.20 in 10.0 mi ESE 4.6 mph - N/A   Clear
2:55 PM 77.0 °F 51.8 °F 41% 30.20 in 10.0 mi East 5.8 mph - N/A   Clear
3:15 PM 77.0 °F 51.8 °F 41% 30.19 in 10.0 mi ESE 6.9 mph - N/A   Clear
3:35 PM 77.0 °F 51.8 °F 41% 30.19 in 10.0 mi ESE 8.1 mph - N/A   Clear
3:55 PM 77.0 °F 51.8 °F 41% 30.19 in 10.0 mi ESE 4.6 mph - N/A   Clear
4:15 PM 77.0 °F 51.8 °F 41% 30.19 in 10.0 mi East 8.1 mph - N/A   Clear
4:35 PM 77.0 °F 51.8 °F 41% 30.19 in 10.0 mi East 6.9 mph - N/A   Clear
4:55 PM 77.0 °F 50.0 °F 39% 30.19 in 10.0 mi ESE 6.9 mph - N/A   Clear
5:15 PM 75.2 °F 50.0 °F 41% 30.19 in 10.0 mi ESE 4.6 mph - N/A   Clear
5:35 PM 75.2 °F 50.0 °F 41% 30.19 in 10.0 mi ESE 5.8 mph - N/A   Clear
5:55 PM 73.4 °F 50.0 °F 44% 30.19 in 10.0 mi ESE 5.8 mph - N/A   Clear
6:15 PM 73.4 °F 50.0 °F 44% 30.19 in 10.0 mi SE 4.6 mph - N/A   Clear
6:35 PM 71.6 °F 50.0 °F 46% 30.18 in 10.0 mi ESE 4.6 mph - N/A   Clear
6:55 PM 71.6 °F 50.0 °F 46% 30.18 in 10.0 mi East 3.5 mph - N/A   Clear
7:35 PM 68.0 °F 48.2 °F 49% 30.18 in 10.0 mi Calm Calm - N/A   Clear
7:55 PM 68.0 °F 48.2 °F 49% 30.18 in 10.0 mi ESE 3.5 mph - N/A   Clear
8:15 PM 64.4 °F 50.0 °F 59% 30.18 in 10.0 mi Calm Calm - N/A   Clear
8:35 PM 62.6 °F 51.8 °F 68% 30.19 in 10.0 mi Calm Calm - N/A   Clear
8:55 PM 62.6 °F 51.8 °F 68% 30.19 in 10.0 mi Calm Calm - N/A   Clear
9:15 PM 60.8 °F 55.4 °F 82% 30.19 in 10.0 mi Calm Calm - N/A   Clear
9:35 PM 59.0 °F 55.4 °F 88% 30.19 in 10.0 mi Calm Calm - N/A   Clear
9:55 PM 57.2 °F 55.4 °F 94% 30.19 in 10.0 mi Calm Calm - N/A   Clear
10:15 PM 57.2 °F 53.6 °F 88% 30.19 in 10.0 mi Calm Calm - N/A   Clear
10:35 PM 57.2 °F 55.4 °F 94% 30.19 in 10.0 mi Calm Calm - N/A   Clear
10:55 PM 55.4 °F 55.4 °F 100% 30.19 in 10.0 mi Calm Calm - N/A   Clear
11:15 PM 55.4 °F 55.4 °F 100% 30.19 in 10.0 mi Calm Calm - N/A   Clear
11:35 PM 55.4 °F 53.6 °F 94% 30.19 in 10.0 mi Calm Calm - N/A   Clear
11:55 PM 55.4 °F 53.6 °F 94% 30.19 in 10.0 mi Calm Calm - N/A   Clear